createdAt,value
2023-01-08T00:00:46.131Z,99.99
2023-01-08T00:01:46.082Z,99.99
2023-01-08T00:02:46.145Z,99.99
2023-01-08T00:03:46.252Z,99.99
2023-01-08T00:04:46.026Z,99.99
2023-01-08T00:05:46.025Z,99.99
2023-01-08T00:06:46.015Z,99.99
2023-01-08T00:07:45.999Z,99.99
2023-01-08T00:08:46.050Z,99.99
2023-01-08T00:09:46.094Z,99.86
2023-01-08T00:10:45.989Z,99.65
2023-01-08T00:11:45.977Z,99.44
2023-01-08T00:12:45.944Z,99.61
2023-01-08T00:13:45.929Z,99.82
2023-01-08T00:14:45.942Z,99.55
2023-01-08T00:15:45.914Z,99.65
2023-01-08T00:16:46.032Z,99.34
2023-01-08T00:17:45.886Z,98.78
2023-01-08T00:18:45.872Z,99.13
2023-01-08T00:19:45.876Z,98.99
2023-01-08T00:20:45.891Z,99.30
2023-01-08T00:21:45.840Z,98.78
2023-01-08T00:22:45.834Z,98.47
2023-01-08T00:23:45.820Z,98.57
2023-01-08T00:24:45.841Z,98.78
2023-01-08T00:25:45.823Z,98.63
2023-01-08T00:26:45.787Z,98.63
2023-01-08T00:27:45.762Z,98.63
2023-01-08T00:28:45.769Z,97.80
2023-01-08T00:29:45.771Z,97.59
2023-01-08T00:30:45.788Z,97.90
2023-01-08T00:31:45.763Z,97.38
2023-01-08T00:32:45.727Z,97.17
2023-01-08T00:33:45.704Z,97.28
2023-01-08T00:34:45.694Z,97.34
2023-01-08T00:35:45.719Z,96.92
2023-01-08T00:36:45.672Z,96.97
2023-01-08T00:37:45.682Z,97.07
2023-01-08T00:38:45.647Z,96.76
2023-01-08T00:39:45.650Z,96.24
2023-01-08T00:40:45.624Z,96.34
2023-01-08T00:41:45.752Z,96.51
2023-01-08T00:42:45.627Z,96.72
2023-01-08T00:43:45.608Z,95.89
2023-01-08T00:44:45.578Z,95.89
2023-01-08T00:45:45.590Z,95.68
2023-01-08T00:46:45.584Z,95.72
2023-01-08T00:47:45.536Z,95.47
2023-01-08T00:48:45.528Z,95.68
2023-01-08T00:49:45.517Z,95.26
2023-01-08T00:50:45.553Z,95.26
2023-01-08T00:51:45.511Z,95.37
2023-01-08T00:52:46.706Z,95.37
2023-01-08T00:53:45.481Z,94.95
2023-01-08T00:54:45.596Z,95.16
2023-01-08T00:55:45.481Z,94.64
2023-01-08T00:56:45.442Z,94.64
2023-01-08T00:57:45.536Z,94.39
2023-01-08T00:58:45.432Z,93.98
2023-01-08T00:59:45.407Z,93.56
2023-01-08T01:00:45.407Z,93.56
2023-01-08T01:01:45.488Z,93.25
2023-01-08T01:02:45.394Z,92.74
2023-01-08T01:03:45.440Z,92.53
2023-01-08T01:04:45.463Z,92.01
2023-01-08T01:05:45.337Z,92.53
2023-01-08T01:06:45.333Z,92.22
2023-01-08T01:07:45.322Z,92.11
2023-01-08T01:08:45.328Z,92.22
2023-01-08T01:09:45.311Z,92.05
2023-01-08T01:10:45.298Z,92.36
2023-01-08T01:11:45.271Z,92.16
2023-01-08T01:12:45.266Z,92.26
2023-01-08T01:13:45.377Z,92.05
2023-01-08T01:14:45.258Z,92.10
2023-01-08T01:15:45.226Z,92.16
2023-01-08T01:16:45.269Z,92.05
2023-01-08T01:17:45.198Z,92.61
2023-01-08T01:18:45.223Z,92.51
2023-01-08T01:19:45.213Z,92.68
2023-01-08T01:20:45.186Z,92.20
2023-01-08T01:21:45.164Z,93.02
2023-01-08T01:22:45.152Z,92.41
2023-01-08T01:23:45.154Z,92.72
2023-01-08T01:24:45.309Z,92.51
2023-01-08T01:25:45.931Z,93.02
2023-01-08T01:26:45.104Z,92.57
2023-01-08T01:27:45.099Z,92.72
2023-01-08T01:28:45.077Z,92.82
2023-01-08T01:29:45.277Z,93.02
2023-01-08T01:30:45.166Z,92.10
2023-01-08T01:31:45.039Z,93.02
2023-01-08T01:32:45.033Z,92.41
2023-01-08T01:33:45.022Z,92.51
2023-01-08T01:34:45.031Z,92.72
2023-01-08T01:35:44.992Z,92.61
2023-01-08T01:36:45.010Z,92.93
2023-01-08T01:37:44.968Z,92.97
2023-01-08T01:38:44.963Z,92.14
2023-01-08T01:39:44.976Z,92.45
2023-01-08T01:40:44.979Z,92.35
2023-01-08T01:41:44.953Z,93.28
2023-01-08T01:42:44.918Z,92.90
2023-01-08T01:43:44.900Z,93.49
2023-01-08T01:44:44.903Z,94.11
2023-01-08T01:45:45.062Z,93.84
2023-01-08T01:46:44.879Z,94.15
2023-01-08T01:47:44.860Z,92.90
2023-01-08T01:48:44.848Z,93.12
2023-01-08T01:49:44.835Z,93.26
2023-01-08T01:50:44.867Z,93.26
2023-01-08T01:51:44.813Z,93.16
2023-01-08T01:52:44.818Z,92.26
2023-01-08T01:53:44.792Z,92.88
2023-01-08T01:54:44.807Z,92.88
2023-01-08T01:55:44.768Z,93.10
2023-01-08T01:56:44.785Z,92.93
2023-01-08T01:57:44.772Z,93.24
2023-01-08T01:58:44.744Z,93.49
2023-01-08T01:59:44.731Z,93.29
2023-01-08T02:00:44.737Z,94.12
2023-01-08T02:01:44.955Z,94.06
2023-01-08T02:02:44.716Z,93.95
2023-01-08T02:03:44.690Z,93.85
2023-01-08T02:04:44.673Z,93.85
2023-01-08T02:05:44.656Z,94.37
2023-01-08T02:06:44.689Z,94.57
2023-01-08T02:07:44.657Z,94.89
2023-01-08T02:08:44.625Z,94.78
2023-01-08T02:09:44.609Z,95.45
2023-01-08T02:10:44.623Z,95.45
2023-01-08T02:11:44.591Z,94.93
2023-01-08T02:12:44.617Z,95.14
2023-01-08T02:13:44.567Z,94.87
2023-01-08T02:14:44.552Z,94.93
2023-01-08T02:15:44.551Z,95.45
2023-01-08T02:16:44.594Z,95.76
2023-01-08T02:17:44.553Z,95.45
2023-01-08T02:18:44.509Z,95.56
2023-01-08T02:19:44.499Z,95.87
2023-01-08T02:20:44.485Z,95.70
2023-01-08T02:21:44.815Z,96.12
2023-01-08T02:22:44.504Z,95.91
2023-01-08T02:23:44.454Z,95.81
2023-01-08T02:24:44.445Z,95.50
2023-01-08T02:25:47.539Z,95.70
2023-01-08T02:26:44.426Z,96.59
2023-01-08T02:27:44.455Z,97.53
2023-01-08T02:28:44.391Z,97.43
2023-01-08T02:29:44.399Z,97.33
2023-01-08T02:30:44.430Z,97.22
2023-01-08T02:31:44.355Z,97.80
2023-01-08T02:32:44.387Z,97.49
2023-01-08T02:33:44.464Z,98.43
2023-01-08T02:34:44.355Z,99.63
2023-01-08T02:35:44.321Z,98.85
2023-01-08T02:36:44.326Z,99.02
2023-01-08T02:37:44.294Z,99.12
2023-01-08T02:38:44.298Z,98.86
2023-01-08T02:39:44.288Z,97.72
2023-01-08T02:40:44.263Z,97.58
2023-01-08T02:41:44.272Z,97.58
2023-01-08T02:42:44.248Z,97.47
2023-01-08T02:43:44.243Z,97.12
2023-01-08T02:44:44.232Z,96.50
2023-01-08T02:45:44.245Z,96.50
2023-01-08T02:46:44.203Z,96.19
2023-01-08T02:47:44.176Z,95.87
2023-01-08T02:48:44.205Z,95.62
2023-01-08T02:49:44.279Z,95.41
2023-01-08T02:50:44.908Z,95.31
2023-01-08T02:51:44.128Z,95.62
2023-01-08T02:52:44.122Z,95.72
2023-01-08T02:53:44.104Z,95.93
2023-01-08T02:54:44.115Z,95.77
2023-01-08T02:55:44.109Z,95.77
2023-01-08T02:56:44.080Z,95.72
2023-01-08T02:57:44.083Z,95.56
2023-01-08T02:58:44.062Z,95.77
2023-01-08T02:59:44.065Z,95.87
2023-01-08T03:00:44.042Z,95.77
2023-01-08T03:01:44.135Z,95.77
2023-01-08T03:02:44.021Z,95.36
2023-01-08T03:03:44.033Z,95.77
2023-01-08T03:04:43.999Z,95.77
2023-01-08T03:05:44.090Z,95.77
2023-01-08T03:06:43.972Z,95.72
2023-01-08T03:07:43.946Z,95.93
2023-01-08T03:08:43.961Z,95.77
2023-01-08T03:09:43.927Z,95.72
2023-01-08T03:10:43.935Z,96.03
2023-01-08T03:11:43.897Z,95.31
2023-01-08T03:12:43.900Z,95.41
2023-01-08T03:13:43.881Z,95.10
2023-01-08T03:14:43.889Z,95.20
2023-01-08T03:15:43.869Z,95.31
2023-01-08T03:16:43.921Z,95.20
2023-01-08T03:17:43.868Z,95.98
2023-01-08T03:18:43.826Z,95.36
2023-01-08T03:19:43.811Z,95.83
2023-01-08T03:20:43.814Z,95.62
2023-01-08T03:21:43.920Z,95.62
2023-01-08T03:22:43.792Z,95.31
2023-01-08T03:23:43.768Z,95.62
2023-01-08T03:24:43.780Z,95.51
2023-01-08T03:25:43.760Z,96.03
2023-01-08T03:26:43.741Z,95.41
2023-01-08T03:27:43.735Z,95.47
2023-01-08T03:28:43.722Z,95.47
2023-01-08T03:29:43.696Z,95.47
2023-01-08T03:30:43.762Z,94.95
2023-01-08T03:31:43.678Z,95.16
2023-01-08T03:32:43.687Z,95.26
2023-01-08T03:33:43.652Z,95.89
2023-01-08T03:34:43.646Z,95.12
2023-01-08T03:35:43.629Z,95.16
2023-01-08T03:36:43.696Z,94.95
2023-01-08T03:37:43.740Z,94.95
2023-01-08T03:38:43.649Z,95.12
2023-01-08T03:39:43.605Z,95.43
2023-01-08T03:40:43.580Z,95.01
2023-01-08T03:41:43.561Z,95.12
2023-01-08T03:42:43.605Z,94.60
2023-01-08T03:43:43.539Z,94.91
2023-01-08T03:44:43.574Z,94.76
2023-01-08T03:45:43.595Z,94.81
2023-01-08T03:46:43.531Z,94.70
2023-01-08T03:47:43.517Z,94.81
2023-01-08T03:48:43.487Z,94.91
2023-01-08T03:49:43.485Z,94.91
2023-01-08T03:50:43.470Z,94.49
2023-01-08T03:51:43.453Z,94.60
2023-01-08T03:52:43.439Z,94.91
2023-01-08T03:53:43.552Z,95.01
2023-01-08T03:54:43.460Z,95.01
2023-01-08T03:55:43.403Z,94.04
2023-01-08T03:56:43.400Z,94.24
2023-01-08T03:57:43.375Z,94.45
2023-01-08T03:58:43.594Z,94.35
2023-01-08T03:59:43.363Z,94.24
2023-01-08T04:00:43.360Z,94.35
2023-01-08T04:01:43.526Z,93.62
2023-01-08T04:02:44.712Z,93.83
2023-01-08T04:03:43.362Z,93.73
2023-01-08T04:04:43.397Z,94.14
2023-01-08T04:05:43.291Z,93.41
2023-01-08T04:06:43.315Z,93.73
2023-01-08T04:07:43.268Z,93.31
2023-01-08T04:08:43.284Z,93.31
2023-01-08T04:09:43.357Z,93.41
2023-01-08T04:10:43.245Z,93.21
2023-01-08T04:11:43.221Z,93.52
2023-01-08T04:12:43.219Z,93.21
2023-01-08T04:13:43.194Z,92.90
2023-01-08T04:14:43.220Z,93.00
2023-01-08T04:15:43.197Z,92.90
2023-01-08T04:16:43.188Z,92.90
2023-01-08T04:17:43.162Z,92.90
2023-01-08T04:18:43.150Z,93.04
2023-01-08T04:19:43.127Z,93.00
2023-01-08T04:20:43.124Z,93.25
2023-01-08T04:21:43.101Z,93.77
2023-01-08T04:22:43.123Z,93.66
2023-01-08T04:23:43.085Z,93.46
2023-01-08T04:24:43.119Z,93.35
2023-01-08T04:25:43.187Z,93.56
2023-01-08T04:26:43.049Z,93.87
2023-01-08T04:27:43.046Z,94.49
2023-01-08T04:28:43.030Z,94.43
2023-01-08T04:29:43.044Z,94.70
2023-01-08T04:30:43.029Z,94.95
2023-01-08T04:31:42.995Z,94.43
2023-01-08T04:32:42.999Z,94.74
2023-01-08T04:33:42.976Z,94.74
2023-01-08T04:34:42.980Z,94.74
2023-01-08T04:35:42.952Z,94.89
2023-01-08T04:36:42.942Z,95.47
2023-01-08T04:37:42.924Z,95.06
2023-01-08T04:38:42.913Z,95.62
2023-01-08T04:39:42.908Z,95.68
2023-01-08T04:40:42.906Z,95.37
2023-01-08T04:41:42.997Z,95.20
2023-01-08T04:42:42.867Z,95.41
2023-01-08T04:43:42.865Z,95.51
2023-01-08T04:44:42.861Z,95.51
2023-01-08T04:45:42.855Z,95.16
2023-01-08T04:46:42.962Z,95.10
2023-01-08T04:47:42.833Z,95.31
2023-01-08T04:48:42.794Z,95.31
2023-01-08T04:49:42.826Z,95.83
2023-01-08T04:50:42.794Z,95.62
2023-01-08T04:51:42.764Z,95.51
2023-01-08T04:52:42.753Z,95.41
2023-01-08T04:53:42.767Z,95.41
2023-01-08T04:54:42.736Z,95.31
2023-01-08T04:55:42.843Z,95.62
2023-01-08T04:56:42.713Z,95.67
2023-01-08T04:57:42.824Z,95.46
2023-01-08T04:58:42.693Z,95.56
2023-01-08T04:59:42.684Z,95.67
2023-01-08T05:00:42.683Z,95.67
2023-01-08T05:01:42.852Z,95.46
2023-01-08T05:02:42.885Z,95.46
2023-01-08T05:03:42.639Z,95.87
2023-01-08T05:04:42.666Z,95.87
2023-01-08T05:05:42.606Z,96.12
2023-01-08T05:06:42.612Z,96.60
2023-01-08T05:07:42.587Z,97.12
2023-01-08T05:08:42.579Z,97.33
2023-01-08T05:09:42.564Z,97.12
2023-01-08T05:10:42.553Z,96.86
2023-01-08T05:11:42.576Z,96.76
2023-01-08T05:12:42.525Z,96.76
2023-01-08T05:13:42.694Z,96.55
2023-01-08T05:14:42.516Z,96.76
2023-01-08T05:15:42.556Z,96.97
2023-01-08T05:16:42.525Z,95.93
2023-01-08T05:17:42.479Z,95.93
2023-01-08T05:18:42.463Z,95.93
2023-01-08T05:19:42.488Z,96.86
2023-01-08T05:20:42.434Z,96.66
2023-01-08T05:21:42.428Z,96.66
2023-01-08T05:22:42.456Z,96.86
2023-01-08T05:23:42.426Z,96.08
2023-01-08T05:24:42.391Z,96.91
2023-01-08T05:25:42.381Z,96.60
2023-01-08T05:26:42.376Z,96.50
2023-01-08T05:27:42.400Z,96.50
2023-01-08T05:28:42.347Z,96.60
2023-01-08T05:29:42.354Z,96.70
2023-01-08T05:30:42.361Z,96.60
2023-01-08T05:31:42.324Z,96.60
2023-01-08T05:32:42.324Z,97.02
2023-01-08T05:33:42.296Z,97.74
2023-01-08T05:34:42.299Z,97.74
2023-01-08T05:35:42.291Z,97.74
2023-01-08T05:36:42.266Z,97.12
2023-01-08T05:37:42.436Z,97.64
2023-01-08T05:38:42.248Z,97.02
2023-01-08T05:39:43.371Z,96.91
2023-01-08T05:40:42.214Z,96.91
2023-01-08T05:41:42.201Z,97.22
2023-01-08T05:42:42.249Z,96.91
2023-01-08T05:43:42.194Z,97.02
2023-01-08T05:44:42.160Z,96.91
2023-01-08T05:45:42.276Z,96.81
2023-01-08T05:46:42.257Z,96.81
2023-01-08T05:47:42.133Z,97.02
2023-01-08T05:48:42.131Z,97.02
2023-01-08T05:49:42.111Z,97.12
2023-01-08T05:50:42.109Z,96.91
2023-01-08T05:51:42.101Z,96.70
2023-01-08T05:52:42.068Z,96.70
2023-01-08T05:53:42.093Z,96.70
2023-01-08T05:54:42.056Z,96.81
2023-01-08T05:55:42.054Z,96.50
2023-01-08T05:56:42.037Z,96.60
2023-01-08T05:57:42.023Z,97.12
2023-01-08T05:58:42.046Z,96.60
2023-01-08T05:59:42.036Z,96.91
2023-01-08T06:00:41.987Z,96.39
2023-01-08T06:01:42.216Z,97.22
2023-01-08T06:02:42.023Z,96.91
2023-01-08T06:03:41.961Z,96.91
2023-01-08T06:04:41.948Z,96.50
2023-01-08T06:05:41.951Z,96.50
2023-01-08T06:06:41.909Z,96.39
2023-01-08T06:07:41.911Z,96.39
2023-01-08T06:08:41.908Z,96.60
2023-01-08T06:09:41.905Z,97.12
2023-01-08T06:10:41.878Z,97.02
2023-01-08T06:11:41.882Z,96.81
2023-01-08T06:12:41.885Z,96.70
2023-01-08T06:13:41.853Z,97.12
2023-01-08T06:14:41.823Z,97.06
2023-01-08T06:15:41.905Z,96.95
2023-01-08T06:16:41.808Z,97.22
2023-01-08T06:17:41.924Z,97.06
2023-01-08T06:18:41.808Z,96.95
2023-01-08T06:19:41.792Z,96.95
2023-01-08T06:20:41.787Z,97.58
2023-01-08T06:21:41.743Z,97.12
2023-01-08T06:22:41.730Z,97.02
2023-01-08T06:23:41.739Z,97.06
2023-01-08T06:24:41.712Z,96.85
2023-01-08T06:25:41.746Z,97.58
2023-01-08T06:26:41.702Z,97.06
2023-01-08T06:27:41.681Z,96.95
2023-01-08T06:28:41.679Z,97.16
2023-01-08T06:29:41.674Z,97.68
2023-01-08T06:30:41.646Z,97.16
2023-01-08T06:31:41.779Z,97.16
2023-01-08T06:32:41.640Z,97.62
2023-01-08T06:33:41.722Z,97.72
2023-01-08T06:34:41.599Z,97.78
2023-01-08T06:35:41.582Z,97.72
2023-01-08T06:36:41.623Z,97.62
2023-01-08T06:37:41.564Z,97.58
2023-01-08T06:38:41.555Z,97.27
2023-01-08T06:39:41.554Z,97.72
2023-01-08T06:40:41.554Z,97.41
2023-01-08T06:41:41.524Z,97.72
2023-01-08T06:42:41.516Z,98.35
2023-01-08T06:43:41.495Z,97.93
2023-01-08T06:44:41.541Z,97.93
2023-01-08T06:45:41.484Z,97.93
2023-01-08T06:46:41.506Z,98.03
2023-01-08T06:47:41.457Z,97.93
2023-01-08T06:48:41.482Z,97.72
2023-01-08T06:49:41.546Z,98.45
2023-01-08T06:50:41.465Z,98.97
2023-01-08T06:51:41.411Z,98.76
2023-01-08T06:52:41.399Z,98.76
2023-01-08T06:53:41.395Z,98.76
2023-01-08T06:54:41.397Z,98.97
2023-01-08T06:55:41.395Z,98.97
2023-01-08T06:56:52.976Z,98.66
2023-01-08T06:57:42.334Z,98.55
2023-01-08T06:58:41.321Z,98.86
2023-01-08T06:59:41.348Z,99.18
2023-01-08T07:00:41.324Z,99.59
2023-01-08T07:01:41.414Z,98.97
2023-01-08T07:02:41.552Z,99.49
2023-01-08T07:03:41.397Z,99.38
2023-01-08T07:04:41.250Z,99.59
2023-01-08T07:05:41.398Z,99.80
2023-01-08T07:06:41.233Z,99.38
2023-01-08T07:07:41.231Z,99.38
2023-01-08T07:08:41.207Z,99.38
2023-01-08T07:09:41.224Z,99.38
2023-01-08T07:10:41.189Z,99.38
2023-01-08T07:11:41.196Z,99.38
2023-01-08T07:12:41.192Z,99.49
2023-01-08T07:13:41.162Z,99.99
2023-01-08T07:14:41.169Z,99.49
2023-01-08T07:15:41.208Z,99.38
2023-01-08T07:16:41.723Z,99.49
2023-01-08T07:17:41.137Z,99.38
2023-01-08T07:18:41.103Z,99.80
2023-01-08T07:19:41.087Z,99.38
2023-01-08T07:20:41.078Z,99.34
2023-01-08T07:21:41.186Z,99.49
2023-01-08T07:22:41.083Z,99.65
2023-01-08T07:23:41.044Z,99.65
2023-01-08T07:24:41.114Z,99.59
2023-01-08T07:25:41.052Z,99.80
2023-01-08T07:26:41.008Z,99.55
2023-01-08T07:27:41.036Z,99.86
2023-01-08T07:28:40.976Z,99.65
2023-01-08T07:29:40.977Z,99.24
2023-01-08T07:30:40.970Z,99.55
2023-01-08T07:31:40.989Z,99.03
2023-01-08T07:32:40.965Z,99.03
2023-01-08T07:33:40.952Z,99.24
2023-01-08T07:34:40.913Z,99.13
2023-01-08T07:35:40.905Z,99.24
2023-01-08T07:36:40.895Z,99.13
2023-01-08T07:37:40.944Z,99.13
2023-01-08T07:38:40.862Z,99.13
2023-01-08T07:39:40.876Z,99.24
2023-01-08T07:40:40.849Z,99.13
2023-01-08T07:41:40.843Z,99.13
2023-01-08T07:42:40.819Z,99.24
2023-01-08T07:43:40.835Z,99.24
2023-01-08T07:44:40.803Z,99.24
2023-01-08T07:45:40.803Z,99.24
2023-01-08T07:46:40.852Z,99.13
2023-01-08T07:47:40.776Z,98.93
2023-01-08T07:48:40.776Z,99.03
2023-01-08T07:49:40.747Z,99.24
2023-01-08T07:50:41.538Z,99.13
2023-01-08T07:51:40.761Z,99.13
2023-01-08T07:52:40.714Z,99.19
2023-01-08T07:53:40.817Z,99.13
2023-01-08T07:54:40.693Z,99.24
2023-01-08T07:55:40.678Z,99.09
2023-01-08T07:56:40.705Z,99.09
2023-01-08T07:57:40.680Z,99.19
2023-01-08T07:58:40.652Z,98.99
2023-01-08T07:59:40.638Z,98.88
2023-01-08T08:00:40.625Z,98.99
2023-01-08T08:01:40.741Z,99.30
2023-01-08T08:02:40.775Z,99.09
2023-01-08T08:03:40.707Z,99.51
2023-01-08T08:04:40.575Z,99.30
2023-01-08T08:05:40.607Z,98.63
2023-01-08T08:06:40.544Z,98.73
2023-01-08T08:07:40.544Z,98.94
2023-01-08T08:08:42.207Z,98.63
2023-01-08T08:09:40.627Z,98.63
2023-01-08T08:10:40.507Z,98.11
2023-01-08T08:11:40.519Z,98.42
2023-01-08T08:12:40.475Z,98.00
2023-01-08T08:13:40.515Z,97.59
2023-01-08T08:14:40.477Z,97.90
2023-01-08T08:15:40.596Z,97.69
2023-01-08T08:16:40.439Z,98.21
2023-01-08T08:17:40.451Z,98.17
2023-01-08T08:18:40.424Z,98.17
2023-01-08T08:19:40.451Z,97.28
2023-01-08T08:20:40.397Z,97.24
2023-01-08T08:21:40.428Z,97.17
2023-01-08T08:22:40.379Z,97.13
2023-01-08T08:23:40.363Z,97.03
2023-01-08T08:24:40.356Z,97.13
2023-01-08T08:25:40.472Z,97.13
2023-01-08T08:26:40.325Z,97.24
2023-01-08T08:27:40.319Z,97.44
2023-01-08T08:28:40.341Z,97.39
2023-01-08T08:29:40.288Z,97.03
2023-01-08T08:30:42.544Z,97.24
2023-01-08T08:31:40.592Z,96.98
2023-01-08T08:32:40.273Z,96.98
2023-01-08T08:33:40.477Z,96.98
2023-01-08T08:34:40.226Z,96.98
2023-01-08T08:35:40.256Z,96.67
2023-01-08T08:36:40.221Z,97.19
2023-01-08T08:37:40.295Z,96.98
2023-01-08T08:38:40.207Z,96.78
2023-01-08T08:39:40.274Z,96.78
2023-01-08T08:40:40.333Z,97.04
2023-01-08T08:41:40.275Z,97.14
2023-01-08T08:42:40.280Z,96.57
2023-01-08T08:43:40.156Z,96.47
2023-01-08T08:44:42.651Z,95.95
2023-01-08T08:45:40.176Z,95.59
2023-01-08T08:46:40.144Z,95.59
2023-01-08T08:47:40.091Z,95.80
2023-01-08T08:48:40.078Z,95.39
2023-01-08T08:49:40.115Z,95.18
2023-01-08T08:50:40.097Z,95.18
2023-01-08T08:51:40.065Z,95.70
2023-01-08T08:52:40.049Z,95.59
2023-01-08T08:53:42.253Z,95.70
2023-01-08T08:54:40.015Z,95.59
2023-01-08T08:55:39.991Z,95.59
2023-01-08T08:56:39.980Z,95.70
2023-01-08T08:57:40.105Z,95.86
2023-01-08T08:58:40.016Z,95.75
2023-01-08T08:59:39.968Z,95.44
2023-01-08T09:00:39.965Z,95.03
2023-01-08T09:01:40.036Z,94.82
2023-01-08T09:02:40.208Z,95.65
2023-01-08T09:03:40.038Z,95.75
2023-01-08T09:04:39.897Z,94.87
2023-01-08T09:05:39.887Z,94.82
2023-01-08T09:06:40.051Z,94.93
2023-01-08T09:07:39.859Z,95.44
2023-01-08T09:08:39.902Z,95.34
2023-01-08T09:09:40.965Z,95.24
2023-01-08T09:10:39.834Z,95.14
2023-01-08T09:11:40.195Z,95.40
2023-01-08T09:12:39.811Z,95.14
2023-01-08T09:13:39.894Z,95.44
2023-01-08T09:14:39.816Z,95.19
2023-01-08T09:15:39.793Z,95.34
2023-01-08T09:16:39.811Z,94.82
2023-01-08T09:17:39.752Z,95.14
2023-01-08T09:18:39.738Z,94.89
2023-01-08T09:19:39.759Z,94.78
2023-01-08T09:20:39.729Z,94.98
2023-01-08T09:21:39.699Z,94.98
2023-01-08T09:22:39.704Z,95.14
2023-01-08T09:23:39.668Z,95.19
2023-01-08T09:24:39.697Z,94.57
2023-01-08T09:25:39.670Z,94.57
2023-01-08T09:26:39.745Z,94.78
2023-01-08T09:27:39.623Z,94.57
2023-01-08T09:28:39.628Z,94.89
2023-01-08T09:29:39.733Z,94.98
2023-01-08T09:30:39.619Z,95.19
2023-01-08T09:31:39.659Z,94.57
2023-01-08T09:32:39.663Z,94.57
2023-01-08T09:33:39.600Z,94.47
2023-01-08T09:34:39.583Z,94.68
2023-01-08T09:35:39.543Z,94.57
2023-01-08T09:36:39.534Z,94.37
2023-01-08T09:37:39.529Z,94.68
2023-01-08T09:38:39.516Z,94.68
2023-01-08T09:39:40.174Z,94.68
2023-01-08T09:40:39.579Z,94.68
2023-01-08T09:41:39.492Z,94.78
2023-01-08T09:42:39.461Z,94.57
2023-01-08T09:43:39.452Z,94.37
2023-01-08T09:44:39.451Z,94.57
2023-01-08T09:45:39.553Z,94.68
2023-01-08T09:46:39.500Z,94.37
2023-01-08T09:47:39.401Z,94.57
2023-01-08T09:48:39.419Z,94.57
2023-01-08T09:49:39.388Z,94.57
2023-01-08T09:50:39.382Z,94.47
2023-01-08T09:51:39.372Z,94.68
2023-01-08T09:52:39.353Z,94.57
2023-01-08T09:53:39.331Z,94.68
2023-01-08T09:54:39.331Z,94.37
2023-01-08T09:55:39.306Z,94.06
2023-01-08T09:56:39.372Z,93.43
2023-01-08T09:57:39.366Z,93.54
2023-01-08T09:58:39.281Z,93.85
2023-01-08T09:59:39.265Z,93.85
2023-01-08T10:00:39.318Z,94.68
2023-01-08T10:01:39.484Z,94.16
2023-01-08T10:02:39.393Z,94.37
2023-01-08T10:03:39.250Z,93.85
2023-01-08T10:04:39.211Z,94.12
2023-01-08T10:05:39.270Z,93.80
2023-01-08T10:06:39.208Z,93.43
2023-01-08T10:07:39.190Z,93.54
2023-01-08T10:08:39.195Z,93.54
2023-01-08T10:09:39.185Z,93.58
2023-01-08T10:10:39.151Z,93.99
2023-01-08T10:11:39.144Z,93.99
2023-01-08T10:12:46.973Z,93.99
2023-01-08T10:13:39.122Z,93.89
2023-01-08T10:14:39.125Z,94.62
2023-01-08T10:15:39.092Z,94.20
2023-01-08T10:16:39.096Z,94.62
2023-01-08T10:17:39.239Z,94.20
2023-01-08T10:18:39.056Z,94.41
2023-01-08T10:19:39.052Z,93.89
2023-01-08T10:20:39.051Z,93.58
2023-01-08T10:21:39.036Z,94.31
2023-01-08T10:22:39.018Z,94.51
2023-01-08T10:23:39.019Z,94.82
2023-01-08T10:24:38.986Z,94.37
2023-01-08T10:25:38.973Z,94.20
2023-01-08T10:26:42.347Z,94.41
2023-01-08T10:27:38.943Z,93.89
2023-01-08T10:28:39.699Z,93.85
2023-01-08T10:29:38.956Z,94.72
2023-01-08T10:30:38.932Z,93.99
2023-01-08T10:31:39.005Z,94.20
2023-01-08T10:32:38.894Z,93.95
2023-01-08T10:33:38.907Z,94.26
2023-01-08T10:34:38.892Z,94.16
2023-01-08T10:35:38.874Z,93.54
2023-01-08T10:36:38.857Z,93.23
2023-01-08T10:37:38.834Z,93.43
2023-01-08T10:38:38.876Z,93.54
2023-01-08T10:39:38.817Z,93.02
2023-01-08T10:40:38.807Z,93.23
2023-01-08T10:41:38.790Z,93.33
2023-01-08T10:42:38.781Z,93.23
2023-01-08T10:43:38.784Z,93.54
2023-01-08T10:44:38.777Z,93.33
2023-01-08T10:45:38.799Z,93.43
2023-01-08T10:46:38.754Z,93.23
2023-01-08T10:47:38.728Z,93.39
2023-01-08T10:48:38.732Z,93.60
2023-01-08T10:49:38.710Z,93.60
2023-01-08T10:50:38.717Z,92.57
2023-01-08T10:51:38.682Z,92.97
2023-01-08T10:52:38.659Z,92.63
2023-01-08T10:53:38.654Z,92.93
2023-01-08T10:54:38.686Z,92.46
2023-01-08T10:55:38.649Z,92.93
2023-01-08T10:56:38.617Z,92.67
2023-01-08T10:57:38.607Z,92.72
2023-01-08T10:58:38.604Z,92.36
2023-01-08T10:59:38.604Z,92.11
2023-01-08T11:00:38.657Z,92.11
2023-01-08T11:01:38.637Z,92.21
2023-01-08T11:02:39.470Z,92.00
2023-01-08T11:03:38.577Z,91.80
2023-01-08T11:04:38.522Z,92.42
2023-01-08T11:05:38.542Z,92.32
2023-01-08T11:06:38.543Z,91.90
2023-01-08T11:07:38.484Z,91.90
2023-01-08T11:08:38.502Z,91.75
2023-01-08T11:09:38.469Z,92.00
2023-01-08T11:10:38.464Z,91.13
2023-01-08T11:11:38.460Z,91.34
2023-01-08T11:12:38.458Z,91.65
2023-01-08T11:13:38.418Z,91.55
2023-01-08T11:14:38.434Z,91.44
2023-01-08T11:15:38.417Z,91.44
2023-01-08T11:16:38.476Z,91.44
2023-01-08T11:17:38.376Z,90.83
2023-01-08T11:18:38.399Z,90.72
2023-01-08T11:19:38.375Z,90.72
2023-01-08T11:20:38.343Z,90.58
2023-01-08T11:21:38.352Z,90.37
2023-01-08T11:22:38.324Z,90.58
2023-01-08T11:23:38.308Z,90.62
2023-01-08T11:24:38.318Z,90.58
2023-01-08T11:25:38.289Z,90.68
2023-01-08T11:26:38.272Z,90.89
2023-01-08T11:27:38.271Z,90.89
2023-01-08T11:28:38.275Z,90.68
2023-01-08T11:29:38.232Z,90.47
2023-01-08T11:30:38.268Z,90.26
2023-01-08T11:31:38.273Z,90.68
2023-01-08T11:32:38.208Z,90.78
2023-01-08T11:33:38.210Z,90.78
2023-01-08T11:34:38.210Z,90.68
2023-01-08T11:35:38.192Z,90.68
2023-01-08T11:36:38.188Z,90.95
2023-01-08T11:37:38.197Z,90.64
2023-01-08T11:38:38.134Z,90.64
2023-01-08T11:39:38.129Z,90.64
2023-01-08T11:40:38.107Z,90.12
2023-01-08T11:41:38.121Z,89.56
2023-01-08T11:42:38.105Z,89.81
2023-01-08T11:43:38.080Z,89.87
2023-01-08T11:44:38.105Z,89.87
2023-01-08T11:45:38.128Z,89.67
2023-01-08T11:46:38.052Z,89.77
2023-01-08T11:47:38.036Z,89.77
2023-01-08T11:48:38.017Z,90.08
2023-01-08T11:49:38.006Z,89.98
2023-01-08T11:50:38.021Z,89.67
2023-01-08T11:51:38.013Z,89.67
2023-01-08T11:52:37.979Z,89.98
2023-01-08T11:53:38.000Z,89.77
2023-01-08T11:54:37.964Z,89.87
2023-01-08T11:55:37.942Z,89.87
2023-01-08T11:56:37.935Z,89.67
2023-01-08T11:57:37.921Z,89.56
2023-01-08T11:58:37.927Z,89.36
2023-01-08T11:59:40.501Z,89.67
2023-01-08T12:00:37.887Z,89.67
2023-01-08T12:01:37.956Z,89.56
2023-01-08T12:02:37.893Z,89.98
2023-01-08T12:03:37.976Z,89.67
2023-01-08T12:04:37.862Z,89.77
2023-01-08T12:05:37.829Z,89.32
2023-01-08T12:06:37.850Z,90.04
2023-01-08T12:07:37.801Z,89.32
2023-01-08T12:08:37.809Z,89.62
2023-01-08T12:09:37.824Z,90.04
2023-01-08T12:10:37.780Z,89.83
2023-01-08T12:11:37.797Z,89.89
2023-01-08T12:12:37.745Z,90.04
2023-01-08T12:13:37.737Z,90.04
2023-01-08T12:14:37.739Z,90.86
2023-01-08T12:15:37.747Z,90.31
2023-01-08T12:16:37.759Z,90.61
2023-01-08T12:17:37.684Z,90.78
2023-01-08T12:18:37.694Z,89.85
2023-01-08T12:19:38.455Z,90.10
2023-01-08T12:20:37.656Z,90.16
2023-01-08T12:21:37.683Z,89.65
2023-01-08T12:22:37.667Z,89.95
2023-01-08T12:23:37.653Z,89.95
2023-01-08T12:24:37.610Z,89.85
2023-01-08T12:25:37.623Z,89.75
2023-01-08T12:26:37.606Z,89.85
2023-01-08T12:27:55.940Z,89.91
2023-01-08T12:28:38.576Z,89.71
2023-01-08T12:29:37.569Z,89.65
2023-01-08T12:30:37.553Z,89.61
2023-01-08T12:31:37.588Z,89.44
2023-01-08T12:32:37.526Z,89.34
2023-01-08T12:33:37.534Z,90.01
2023-01-08T12:34:37.511Z,89.50
2023-01-08T12:35:37.511Z,89.50
2023-01-08T12:36:37.537Z,89.61
2023-01-08T12:37:37.454Z,89.40
2023-01-08T12:38:37.473Z,89.40
2023-01-08T12:39:37.452Z,89.81
2023-01-08T12:40:37.444Z,89.77
2023-01-08T12:41:37.507Z,89.61
2023-01-08T12:42:37.410Z,89.40
2023-01-08T12:43:37.391Z,89.61
2023-01-08T12:44:37.380Z,89.25
2023-01-08T12:45:37.407Z,88.53
2023-01-08T12:46:37.391Z,88.84
2023-01-08T12:47:37.384Z,88.84
2023-01-08T12:48:37.337Z,88.74
2023-01-08T12:49:37.320Z,88.78
2023-01-08T12:50:37.353Z,88.95
2023-01-08T12:51:37.335Z,88.74
2023-01-08T12:52:37.301Z,88.84